sensor_id;sensor_type;location;lat;lon;timestamp;temperature;humidity
14252;DHT22;7210;51.502;10.722;2023-04-24T00:00:59;11.10;99.90
14252;DHT22;7210;51.502;10.722;2023-04-24T00:03:30;11.10;99.90
14252;DHT22;7210;51.502;10.722;2023-04-24T00:06:02;11.00;99.90
14252;DHT22;7210;51.502;10.722;2023-04-24T00:08:37;11.00;99.90
14252;DHT22;7210;51.502;10.722;2023-04-24T00:11:05;10.90;99.90
14252;DHT22;7210;51.502;10.722;2023-04-24T00:13:33;10.80;99.90
14252;DHT22;7210;51.502;10.722;2023-04-24T00:16:00;10.80;99.90
14252;DHT22;7210;51.502;10.722;2023-04-24T00:18:27;10.70;99.90
14252;DHT22;7210;51.502;10.722;2023-04-24T00:20:54;10.70;99.90
14252;DHT22;7210;51.502;10.722;2023-04-24T00:23:21;10.60;99.90
14252;DHT22;7210;51.502;10.722;2023-04-24T00:25:49;10.60;99.90
14252;DHT22;7210;51.502;10.722;2023-04-24T00:28:22;10.60;99.90
14252;DHT22;7210;51.502;10.722;2023-04-24T00:30:50;10.50;99.90
14252;DHT22;7210;51.502;10.722;2023-04-24T00:33:19;10.50;99.90
14252;DHT22;7210;51.502;10.722;2023-04-24T00:35:46;10.60;99.90
14252;DHT22;7210;51.502;10.722;2023-04-24T00:38:13;10.60;99.90
14252;DHT22;7210;51.502;10.722;2023-04-24T00:40:41;10.60;99.90
14252;DHT22;7210;51.502;10.722;2023-04-24T00:43:13;10.60;99.90
14252;DHT22;7210;51.502;10.722;2023-04-24T00:45:42;10.60;99.90
14252;DHT22;7210;51.502;10.722;2023-04-24T00:48:14;10.60;99.90
14252;DHT22;7210;51.502;10.722;2023-04-24T00:50:42;10.50;99.90
14252;DHT22;7210;51.502;10.722;2023-04-24T00:53:12;10.60;99.90
14252;DHT22;7210;51.502;10.722;2023-04-24T00:55:41;10.50;99.90
14252;DHT22;7210;51.502;10.722;2023-04-24T00:58:15;10.50;99.90
14252;DHT22;7210;51.502;10.722;2023-04-24T01:00:48;10.50;99.90
14252;DHT22;7210;51.502;10.722;2023-04-24T01:03:19;10.50;99.90
14252;DHT22;7210;51.502;10.722;2023-04-24T01:05:49;10.40;99.90
14252;DHT22;7210;51.502;10.722;2023-04-24T01:08:17;10.30;99.90
14252;DHT22;7210;51.502;10.722;2023-04-24T01:10:47;10.30;99.90
14252;DHT22;7210;51.502;10.722;2023-04-24T01:13:20;10.20;99.90
14252;DHT22;7210;51.502;10.722;2023-04-24T01:15:51;10.10;99.90
14252;DHT22;7210;51.502;10.722;2023-04-24T01:18:23;10.10;99.90
14252;DHT22;7210;51.502;10.722;2023-04-24T01:20:56;10.00;99.90
14252;DHT22;7210;51.502;10.722;2023-04-24T01:23:36;10.00;99.90
14252;DHT22;7210;51.502;10.722;2023-04-24T01:26:15;10.00;99.90
14252;DHT22;7210;51.502;10.722;2023-04-24T01:28:52;9.90;99.90
14252;DHT22;7210;51.502;10.722;2023-04-24T01:31:20;9.90;99.90
14252;DHT22;7210;51.502;10.722;2023-04-24T01:33:47;9.90;99.90
14252;DHT22;7210;51.502;10.722;2023-04-24T01:36:15;9.80;99.90
14252;DHT22;7210;51.502;10.722;2023-04-24T01:38:45;9.80;99.90
14252;DHT22;7210;51.502;10.722;2023-04-24T01:41:12;9.90;99.90
14252;DHT22;7210;51.502;10.722;2023-04-24T01:43:39;9.90;99.90
14252;DHT22;7210;51.502;10.722;2023-04-24T01:46:07;9.90;99.90
14252;DHT22;7210;51.502;10.722;2023-04-24T01:48:48;10.00;99.90
14252;DHT22;7210;51.502;10.722;2023-04-24T01:51:21;10.00;99.90
14252;DHT22;7210;51.502;10.722;2023-04-24T01:53:55;10.00;99.90
14252;DHT22;7210;51.502;10.722;2023-04-24T01:56:29;10.00;99.90
14252;DHT22;7210;51.502;10.722;2023-04-24T01:58:56;10.00;99.90
14252;DHT22;7210;51.502;10.722;2023-04-24T02:01:25;10.00;99.90
14252;DHT22;7210;51.502;10.722;2023-04-24T02:03:54;9.90;99.90
14252;DHT22;7210;51.502;10.722;2023-04-24T02:06:21;9.80;99.90
14252;DHT22;7210;51.502;10.722;2023-04-24T02:08:49;9.70;99.90
14252;DHT22;7210;51.502;10.722;2023-04-24T02:14:07;9.50;99.90
14252;DHT22;7210;51.502;10.722;2023-04-24T02:16:34;9.50;99.90
14252;DHT22;7210;51.502;10.722;2023-04-24T02:19:03;9.40;99.90
14252;DHT22;7210;51.502;10.722;2023-04-24T02:24:21;9.40;99.90
14252;DHT22;7210;51.502;10.722;2023-04-24T02:26:48;9.30;99.90
14252;DHT22;7210;51.502;10.722;2023-04-24T02:29:15;9.40;99.90
14252;DHT22;7210;51.502;10.722;2023-04-24T02:31:42;9.40;99.90
14252;DHT22;7210;51.502;10.722;2023-04-24T02:34:17;9.40;99.90
14252;DHT22;7210;51.502;10.722;2023-04-24T02:36:44;9.20;99.90
14252;DHT22;7210;51.502;10.722;2023-04-24T02:39:14;9.10;99.90
14252;DHT22;7210;51.502;10.722;2023-04-24T02:41:51;9.00;99.90
14252;DHT22;7210;51.502;10.722;2023-04-24T02:44:19;8.90;99.90
14252;DHT22;7210;51.502;10.722;2023-04-24T02:46:47;8.90;99.90
14252;DHT22;7210;51.502;10.722;2023-04-24T02:49:17;8.90;99.90
14252;DHT22;7210;51.502;10.722;2023-04-24T02:51:44;8.80;99.90
14252;DHT22;7210;51.502;10.722;2023-04-24T02:54:11;8.80;99.90
14252;DHT22;7210;51.502;10.722;2023-04-24T02:56:38;8.80;99.90
14252;DHT22;7210;51.502;10.722;2023-04-24T02:59:09;8.80;99.90
14252;DHT22;7210;51.502;10.722;2023-04-24T03:01:37;8.70;99.90
14252;DHT22;7210;51.502;10.722;2023-04-24T03:04:04;8.60;99.90
14252;DHT22;7210;51.502;10.722;2023-04-24T03:06:32;8.60;99.90
14252;DHT22;7210;51.502;10.722;2023-04-24T03:09:01;8.50;99.90
14252;DHT22;7210;51.502;10.722;2023-04-24T03:11:29;8.40;99.90
14252;DHT22;7210;51.502;10.722;2023-04-24T03:13:56;8.40;99.90
14252;DHT22;7210;51.502;10.722;2023-04-24T03:16:23;8.40;99.90
14252;DHT22;7210;51.502;10.722;2023-04-24T03:18:54;8.30;99.90
14252;DHT22;7210;51.502;10.722;2023-04-24T03:21:25;8.30;99.90
14252;DHT22;7210;51.502;10.722;2023-04-24T03:23:54;8.30;99.90
14252;DHT22;7210;51.502;10.722;2023-04-24T03:26:22;8.20;99.90
14252;DHT22;7210;51.502;10.722;2023-04-24T03:29:16;8.30;99.90
14252;DHT22;7210;51.502;10.722;2023-04-24T03:31:44;8.30;99.90
14252;DHT22;7210;51.502;10.722;2023-04-24T03:34:13;8.40;99.90
14252;DHT22;7210;51.502;10.722;2023-04-24T03:36:41;8.40;99.90
14252;DHT22;7210;51.502;10.722;2023-04-24T03:39:10;8.40;99.90
14252;DHT22;7210;51.502;10.722;2023-04-24T03:41:45;8.40;99.90
14252;DHT22;7210;51.502;10.722;2023-04-24T03:44:17;8.40;99.90
14252;DHT22;7210;51.502;10.722;2023-04-24T03:46:45;8.40;99.90
14252;DHT22;7210;51.502;10.722;2023-04-24T03:49:13;8.50;99.90
14252;DHT22;7210;51.502;10.722;2023-04-24T03:51:43;8.50;99.90
14252;DHT22;7210;51.502;10.722;2023-04-24T03:54:20;8.40;99.90
14252;DHT22;7210;51.502;10.722;2023-04-24T03:56:49;8.40;99.90
14252;DHT22;7210;51.502;10.722;2023-04-24T03:59:18;8.50;99.90
14252;DHT22;7210;51.502;10.722;2023-04-24T04:01:54;8.50;99.90
14252;DHT22;7210;51.502;10.722;2023-04-24T04:04:22;8.50;99.90
14252;DHT22;7210;51.502;10.722;2023-04-24T04:06:50;8.50;99.90
14252;DHT22;7210;51.502;10.722;2023-04-24T04:09:22;8.60;99.90
14252;DHT22;7210;51.502;10.722;2023-04-24T04:11:50;8.60;99.90
14252;DHT22;7210;51.502;10.722;2023-04-24T04:14:17;8.60;99.90
14252;DHT22;7210;51.502;10.722;2023-04-24T04:16:47;8.60;99.90
14252;DHT22;7210;51.502;10.722;2023-04-24T04:19:14;8.60;99.90
14252;DHT22;7210;51.502;10.722;2023-04-24T04:21:42;8.60;99.90
14252;DHT22;7210;51.502;10.722;2023-04-24T04:24:25;8.60;99.90
14252;DHT22;7210;51.502;10.722;2023-04-24T04:26:52;8.60;99.90
14252;DHT22;7210;51.502;10.722;2023-04-24T04:29:32;8.70;99.90
14252;DHT22;7210;51.502;10.722;2023-04-24T04:32:01;8.80;99.90
14252;DHT22;7210;51.502;10.722;2023-04-24T04:34:33;8.90;99.90
14252;DHT22;7210;51.502;10.722;2023-04-24T04:37:04;9.00;99.90
14252;DHT22;7210;51.502;10.722;2023-04-24T04:39:46;9.20;99.90
14252;DHT22;7210;51.502;10.722;2023-04-24T04:42:20;9.20;99.90
14252;DHT22;7210;51.502;10.722;2023-04-24T04:44:49;9.30;99.90
14252;DHT22;7210;51.502;10.722;2023-04-24T04:47:21;9.40;99.90
14252;DHT22;7210;51.502;10.722;2023-04-24T04:49:50;9.40;99.90
14252;DHT22;7210;51.502;10.722;2023-04-24T04:52:21;9.60;99.90
14252;DHT22;7210;51.502;10.722;2023-04-24T04:54:56;9.70;99.90
14252;DHT22;7210;51.502;10.722;2023-04-24T04:57:31;9.70;99.90
14252;DHT22;7210;51.502;10.722;2023-04-24T04:59:58;9.80;99.90
14252;DHT22;7210;51.502;10.722;2023-04-24T05:02:39;9.90;99.90
14252;DHT22;7210;51.502;10.722;2023-04-24T05:05:07;9.90;99.90
14252;DHT22;7210;51.502;10.722;2023-04-24T05:07:35;10.00;99.90
14252;DHT22;7210;51.502;10.722;2023-04-24T05:10:06;10.10;99.90
14252;DHT22;7210;51.502;10.722;2023-04-24T05:12:34;10.20;99.90
14252;DHT22;7210;51.502;10.722;2023-04-24T05:15:03;10.30;99.90
14252;DHT22;7210;51.502;10.722;2023-04-24T05:17:31;10.30;99.90
14252;DHT22;7210;51.502;10.722;2023-04-24T05:19:59;10.50;99.90
14252;DHT22;7210;51.502;10.722;2023-04-24T05:22:27;10.60;99.90
14252;DHT22;7210;51.502;10.722;2023-04-24T05:24:55;10.70;99.90
14252;DHT22;7210;51.502;10.722;2023-04-24T05:27:39;10.90;99.90
14252;DHT22;7210;51.502;10.722;2023-04-24T05:30:13;10.90;99.90
14252;DHT22;7210;51.502;10.722;2023-04-24T05:32:40;11.00;99.90
14252;DHT22;7210;51.502;10.722;2023-04-24T05:35:08;11.10;99.90
14252;DHT22;7210;51.502;10.722;2023-04-24T05:37:36;11.20;99.90
14252;DHT22;7210;51.502;10.722;2023-04-24T05:40:04;11.40;99.90
14252;DHT22;7210;51.502;10.722;2023-04-24T05:42:33;11.50;99.90
14252;DHT22;7210;51.502;10.722;2023-04-24T05:45:04;11.60;99.90
14252;DHT22;7210;51.502;10.722;2023-04-24T05:47:32;11.50;99.90
14252;DHT22;7210;51.502;10.722;2023-04-24T05:50:00;11.50;99.90
14252;DHT22;7210;51.502;10.722;2023-04-24T05:52:29;11.60;99.90
14252;DHT22;7210;51.502;10.722;2023-04-24T05:54:57;11.60;99.90
14252;DHT22;7210;51.502;10.722;2023-04-24T05:57:27;11.60;99.90
14252;DHT22;7210;51.502;10.722;2023-04-24T06:00:04;11.60;99.90
14252;DHT22;7210;51.502;10.722;2023-04-24T06:02:39;11.60;99.90
14252;DHT22;7210;51.502;10.722;2023-04-24T06:05:10;11.70;99.90
14252;DHT22;7210;51.502;10.722;2023-04-24T06:07:38;11.80;99.90
14252;DHT22;7210;51.502;10.722;2023-04-24T06:10:08;11.90;99.90
14252;DHT22;7210;51.502;10.722;2023-04-24T06:12:41;11.80;99.90
14252;DHT22;7210;51.502;10.722;2023-04-24T06:15:17;11.90;99.90
14252;DHT22;7210;51.502;10.722;2023-04-24T06:17:59;11.80;99.90
14252;DHT22;7210;51.502;10.722;2023-04-24T06:20:27;11.90;99.90
14252;DHT22;7210;51.502;10.722;2023-04-24T06:22:54;12.00;99.90
14252;DHT22;7210;51.502;10.722;2023-04-24T06:25:21;12.10;99.90
14252;DHT22;7210;51.502;10.722;2023-04-24T06:27:50;12.10;99.90
14252;DHT22;7210;51.502;10.722;2023-04-24T06:30:18;12.20;1.00
14252;DHT22;7210;51.502;10.722;2023-04-24T06:32:46;12.30;99.90
14252;DHT22;7210;51.502;10.722;2023-04-24T06:35:15;12.30;99.90
14252;DHT22;7210;51.502;10.722;2023-04-24T06:37:42;12.20;99.90
14252;DHT22;7210;51.502;10.722;2023-04-24T06:40:10;12.40;99.90
14252;DHT22;7210;51.502;10.722;2023-04-24T06:42:38;12.40;1.00
14252;DHT22;7210;51.502;10.722;2023-04-24T06:45:08;12.60;1.00
14252;DHT22;7210;51.502;10.722;2023-04-24T06:47:37;12.60;1.00
14252;DHT22;7210;51.502;10.722;2023-04-24T06:50:05;12.50;1.00
14252;DHT22;7210;51.502;10.722;2023-04-24T06:52:33;12.50;1.00
14252;DHT22;7210;51.502;10.722;2023-04-24T06:55:01;12.50;1.00
14252;DHT22;7210;51.502;10.722;2023-04-24T06:57:28;12.50;1.00
14252;DHT22;7210;51.502;10.722;2023-04-24T06:59:56;12.50;1.00
14252;DHT22;7210;51.502;10.722;2023-04-24T07:02:23;12.50;1.00
14252;DHT22;7210;51.502;10.722;2023-04-24T07:04:52;12.70;1.00
14252;DHT22;7210;51.502;10.722;2023-04-24T07:07:19;12.80;1.00
14252;DHT22;7210;51.502;10.722;2023-04-24T07:09:47;12.80;1.00
14252;DHT22;7210;51.502;10.722;2023-04-24T07:12:14;12.90;1.00
14252;DHT22;7210;51.502;10.722;2023-04-24T07:14:42;12.90;1.00
14252;DHT22;7210;51.502;10.722;2023-04-24T07:17:09;12.80;1.00
14252;DHT22;7210;51.502;10.722;2023-04-24T07:19:38;12.80;1.00
14252;DHT22;7210;51.502;10.722;2023-04-24T07:22:07;12.90;1.00
14252;DHT22;7210;51.502;10.722;2023-04-24T07:24:37;13.10;1.00
14252;DHT22;7210;51.502;10.722;2023-04-24T07:27:05;13.10;1.00
14252;DHT22;7210;51.502;10.722;2023-04-24T07:29:32;12.90;1.00
14252;DHT22;7210;51.502;10.722;2023-04-24T07:31:59;13.00;1.00
14252;DHT22;7210;51.502;10.722;2023-04-24T07:34:26;12.90;1.00
14252;DHT22;7210;51.502;10.722;2023-04-24T07:36:54;12.90;1.00
14252;DHT22;7210;51.502;10.722;2023-04-24T07:39:22;12.90;1.00
14252;DHT22;7210;51.502;10.722;2023-04-24T07:41:50;12.90;1.00
14252;DHT22;7210;51.502;10.722;2023-04-24T07:44:17;12.80;1.00
14252;DHT22;7210;51.502;10.722;2023-04-24T07:46:44;12.90;1.00
14252;DHT22;7210;51.502;10.722;2023-04-24T07:49:11;12.90;1.00
14252;DHT22;7210;51.502;10.722;2023-04-24T07:51:39;12.90;1.00
14252;DHT22;7210;51.502;10.722;2023-04-24T07:54:07;13.00;1.00
14252;DHT22;7210;51.502;10.722;2023-04-24T07:56:35;13.10;1.00
14252;DHT22;7210;51.502;10.722;2023-04-24T07:59:04;13.10;1.00
14252;DHT22;7210;51.502;10.722;2023-04-24T08:01:31;13.10;1.00
14252;DHT22;7210;51.502;10.722;2023-04-24T08:03:58;13.30;1.00
14252;DHT22;7210;51.502;10.722;2023-04-24T08:06:26;13.40;1.00
14252;DHT22;7210;51.502;10.722;2023-04-24T08:08:56;13.40;1.00
14252;DHT22;7210;51.502;10.722;2023-04-24T08:11:23;13.50;1.00
14252;DHT22;7210;51.502;10.722;2023-04-24T08:13:52;13.50;1.00
14252;DHT22;7210;51.502;10.722;2023-04-24T08:16:20;13.50;1.00
14252;DHT22;7210;51.502;10.722;2023-04-24T08:18:49;13.50;1.00
14252;DHT22;7210;51.502;10.722;2023-04-24T08:21:16;13.60;1.00
14252;DHT22;7210;51.502;10.722;2023-04-24T08:23:45;13.70;1.00
14252;DHT22;7210;51.502;10.722;2023-04-24T08:26:13;13.90;1.00
14252;DHT22;7210;51.502;10.722;2023-04-24T08:28:40;13.90;1.00
14252;DHT22;7210;51.502;10.722;2023-04-24T08:31:10;14.00;1.00
14252;DHT22;7210;51.502;10.722;2023-04-24T08:33:37;13.90;1.00
14252;DHT22;7210;51.502;10.722;2023-04-24T08:36:06;13.70;1.00
14252;DHT22;7210;51.502;10.722;2023-04-24T08:38:34;13.60;1.00
14252;DHT22;7210;51.502;10.722;2023-04-24T08:41:01;13.60;1.00
14252;DHT22;7210;51.502;10.722;2023-04-24T08:43:31;13.80;1.00
14252;DHT22;7210;51.502;10.722;2023-04-24T08:46:00;13.90;1.00
14252;DHT22;7210;51.502;10.722;2023-04-24T08:48:29;14.00;1.00
14252;DHT22;7210;51.502;10.722;2023-04-24T08:50:57;14.00;1.00
14252;DHT22;7210;51.502;10.722;2023-04-24T08:53:27;14.20;1.00
14252;DHT22;7210;51.502;10.722;2023-04-24T08:55:55;14.40;1.00
14252;DHT22;7210;51.502;10.722;2023-04-24T08:58:28;14.70;1.00
14252;DHT22;7210;51.502;10.722;2023-04-24T09:00:57;15.00;1.00
14252;DHT22;7210;51.502;10.722;2023-04-24T09:03:28;14.90;1.00
14252;DHT22;7210;51.502;10.722;2023-04-24T09:05:58;14.70;1.00
14252;DHT22;7210;51.502;10.722;2023-04-24T09:08:28;14.70;1.00
14252;DHT22;7210;51.502;10.722;2023-04-24T09:10:57;14.40;1.00
14252;DHT22;7210;51.502;10.722;2023-04-24T09:13:27;14.20;1.00
14252;DHT22;7210;51.502;10.722;2023-04-24T09:15:55;14.10;1.00
14252;DHT22;7210;51.502;10.722;2023-04-24T09:18:23;14.10;1.00
14252;DHT22;7210;51.502;10.722;2023-04-24T09:21:09;13.90;1.00
14252;DHT22;7210;51.502;10.722;2023-04-24T09:23:37;13.90;1.00
14252;DHT22;7210;51.502;10.722;2023-04-24T09:26:05;13.80;1.00
14252;DHT22;7210;51.502;10.722;2023-04-24T09:28:36;13.90;1.00
14252;DHT22;7210;51.502;10.722;2023-04-24T09:31:05;14.20;1.00
14252;DHT22;7210;51.502;10.722;2023-04-24T09:33:34;14.20;1.00
14252;DHT22;7210;51.502;10.722;2023-04-24T09:36:02;14.30;1.00
14252;DHT22;7210;51.502;10.722;2023-04-24T09:38:36;14.10;1.00
14252;DHT22;7210;51.502;10.722;2023-04-24T09:41:05;14.00;1.00
14252;DHT22;7210;51.502;10.722;2023-04-24T09:43:34;14.00;1.00
14252;DHT22;7210;51.502;10.722;2023-04-24T09:46:05;13.90;1.00
14252;DHT22;7210;51.502;10.722;2023-04-24T09:48:36;14.00;1.00
14252;DHT22;7210;51.502;10.722;2023-04-24T09:51:05;14.10;1.00
14252;DHT22;7210;51.502;10.722;2023-04-24T09:53:37;14.20;1.00
14252;DHT22;7210;51.502;10.722;2023-04-24T09:56:10;14.20;1.00
14252;DHT22;7210;51.502;10.722;2023-04-24T09:58:39;14.50;1.00
14252;DHT22;7210;51.502;10.722;2023-04-24T10:01:06;14.50;1.00
14252;DHT22;7210;51.502;10.722;2023-04-24T10:03:34;14.70;1.00
14252;DHT22;7210;51.502;10.722;2023-04-24T10:06:02;14.90;1.00
14252;DHT22;7210;51.502;10.722;2023-04-24T10:08:35;15.20;1.00
14252;DHT22;7210;51.502;10.722;2023-04-24T10:11:04;15.30;1.00
14252;DHT22;7210;51.502;10.722;2023-04-24T10:13:33;15.10;1.00
14252;DHT22;7210;51.502;10.722;2023-04-24T10:16:04;14.70;1.00
14252;DHT22;7210;51.502;10.722;2023-04-24T10:18:32;14.50;1.00
14252;DHT22;7210;51.502;10.722;2023-04-24T10:21:01;14.70;1.00
14252;DHT22;7210;51.502;10.722;2023-04-24T10:23:29;14.80;1.00
14252;DHT22;7210;51.502;10.722;2023-04-24T10:26:00;15.00;1.00
14252;DHT22;7210;51.502;10.722;2023-04-24T10:28:29;15.00;1.00
14252;DHT22;7210;51.502;10.722;2023-04-24T10:30:58;15.10;1.00
14252;DHT22;7210;51.502;10.722;2023-04-24T10:33:26;15.00;1.00
14252;DHT22;7210;51.502;10.722;2023-04-24T10:35:55;15.10;1.00
14252;DHT22;7210;51.502;10.722;2023-04-24T10:38:25;15.10;1.00
14252;DHT22;7210;51.502;10.722;2023-04-24T10:41:07;15.20;1.00
14252;DHT22;7210;51.502;10.722;2023-04-24T10:43:36;15.20;1.00
14252;DHT22;7210;51.502;10.722;2023-04-24T10:46:04;15.00;1.00
14252;DHT22;7210;51.502;10.722;2023-04-24T10:48:32;15.20;1.00
14252;DHT22;7210;51.502;10.722;2023-04-24T10:51:00;15.20;1.00
14252;DHT22;7210;51.502;10.722;2023-04-24T10:53:28;15.40;1.00
14252;DHT22;7210;51.502;10.722;2023-04-24T10:56:02;15.40;1.00
14252;DHT22;7210;51.502;10.722;2023-04-24T10:58:39;15.40;1.00
14252;DHT22;7210;51.502;10.722;2023-04-24T11:01:23;15.30;1.00
14252;DHT22;7210;51.502;10.722;2023-04-24T11:03:55;15.50;1.00
14252;DHT22;7210;51.502;10.722;2023-04-24T11:06:31;15.70;1.00
14252;DHT22;7210;51.502;10.722;2023-04-24T11:09:03;15.80;1.00
14252;DHT22;7210;51.502;10.722;2023-04-24T11:11:34;15.80;1.00
14252;DHT22;7210;51.502;10.722;2023-04-24T11:14:06;15.90;1.00
14252;DHT22;7210;51.502;10.722;2023-04-24T11:16:53;16.10;1.00
14252;DHT22;7210;51.502;10.722;2023-04-24T11:19:23;15.90;1.00
14252;DHT22;7210;51.502;10.722;2023-04-24T11:21:56;15.90;1.00
14252;DHT22;7210;51.502;10.722;2023-04-24T11:24:31;16.00;1.00
14252;DHT22;7210;51.502;10.722;2023-04-24T11:27:14;16.10;1.00
14252;DHT22;7210;51.502;10.722;2023-04-24T11:29:47;15.80;1.00
14252;DHT22;7210;51.502;10.722;2023-04-24T11:32:23;15.80;1.00
14252;DHT22;7210;51.502;10.722;2023-04-24T11:34:54;16.10;1.00
14252;DHT22;7210;51.502;10.722;2023-04-24T11:37:27;16.30;1.00
14252;DHT22;7210;51.502;10.722;2023-04-24T11:40:05;16.30;1.00
14252;DHT22;7210;51.502;10.722;2023-04-24T11:42:38;16.20;1.00
14252;DHT22;7210;51.502;10.722;2023-04-24T11:45:11;16.00;1.00
14252;DHT22;7210;51.502;10.722;2023-04-24T11:47:40;15.60;1.00
14252;DHT22;7210;51.502;10.722;2023-04-24T11:50:12;15.60;1.00
14252;DHT22;7210;51.502;10.722;2023-04-24T11:52:43;15.70;1.00
14252;DHT22;7210;51.502;10.722;2023-04-24T11:55:23;15.60;1.00
14252;DHT22;7210;51.502;10.722;2023-04-24T11:57:55;15.60;1.00
14252;DHT22;7210;51.502;10.722;2023-04-24T12:00:25;16.00;1.00
14252;DHT22;7210;51.502;10.722;2023-04-24T12:03:04;16.20;1.00
14252;DHT22;7210;51.502;10.722;2023-04-24T12:05:33;15.90;1.00
14252;DHT22;7210;51.502;10.722;2023-04-24T12:08:01;15.70;1.00
14252;DHT22;7210;51.502;10.722;2023-04-24T12:10:30;15.50;1.00
14252;DHT22;7210;51.502;10.722;2023-04-24T12:13:05;15.50;1.00
14252;DHT22;7210;51.502;10.722;2023-04-24T12:15:39;15.60;1.00
14252;DHT22;7210;51.502;10.722;2023-04-24T12:18:11;15.50;1.00
14252;DHT22;7210;51.502;10.722;2023-04-24T12:20:40;15.40;1.00
14252;DHT22;7210;51.502;10.722;2023-04-24T12:23:07;15.20;1.00
14252;DHT22;7210;51.502;10.722;2023-04-24T12:25:35;15.10;1.00
14252;DHT22;7210;51.502;10.722;2023-04-24T12:28:13;14.80;1.00
14252;DHT22;7210;51.502;10.722;2023-04-24T12:30:41;14.20;1.00
14252;DHT22;7210;51.502;10.722;2023-04-24T12:33:10;13.80;1.00
14252;DHT22;7210;51.502;10.722;2023-04-24T12:35:40;13.90;1.00
14252;DHT22;7210;51.502;10.722;2023-04-24T12:38:11;14.20;1.00
14252;DHT22;7210;51.502;10.722;2023-04-24T12:40:39;14.40;1.00
14252;DHT22;7210;51.502;10.722;2023-04-24T12:43:15;14.60;1.00
14252;DHT22;7210;51.502;10.722;2023-04-24T12:45:43;14.60;1.00
14252;DHT22;7210;51.502;10.722;2023-04-24T12:48:10;14.70;1.00
14252;DHT22;7210;51.502;10.722;2023-04-24T12:50:39;14.70;1.00
14252;DHT22;7210;51.502;10.722;2023-04-24T12:53:07;14.60;1.00
14252;DHT22;7210;51.502;10.722;2023-04-24T12:55:35;14.60;1.00
14252;DHT22;7210;51.502;10.722;2023-04-24T12:58:02;14.10;1.00
14252;DHT22;7210;51.502;10.722;2023-04-24T13:00:31;13.90;1.00
14252;DHT22;7210;51.502;10.722;2023-04-24T13:02:58;13.70;1.00
14252;DHT22;7210;51.502;10.722;2023-04-24T13:05:27;13.70;1.00
14252;DHT22;7210;51.502;10.722;2023-04-24T13:07:55;14.00;1.00
14252;DHT22;7210;51.502;10.722;2023-04-24T13:10:23;14.00;1.00
14252;DHT22;7210;51.502;10.722;2023-04-24T13:12:51;14.10;1.00
14252;DHT22;7210;51.502;10.722;2023-04-24T13:15:18;14.10;1.00
14252;DHT22;7210;51.502;10.722;2023-04-24T13:17:47;14.20;1.00
14252;DHT22;7210;51.502;10.722;2023-04-24T13:20:14;14.30;1.00
14252;DHT22;7210;51.502;10.722;2023-04-24T13:22:41;14.20;1.00
14252;DHT22;7210;51.502;10.722;2023-04-24T13:25:09;14.20;1.00
14252;DHT22;7210;51.502;10.722;2023-04-24T13:27:38;14.10;1.00
14252;DHT22;7210;51.502;10.722;2023-04-24T13:30:06;14.20;1.00
14252;DHT22;7210;51.502;10.722;2023-04-24T13:32:34;14.10;1.00
14252;DHT22;7210;51.502;10.722;2023-04-24T13:35:04;14.00;1.00
14252;DHT22;7210;51.502;10.722;2023-04-24T13:37:31;13.70;1.00
14252;DHT22;7210;51.502;10.722;2023-04-24T13:39:58;13.40;1.00
14252;DHT22;7210;51.502;10.722;2023-04-24T13:42:27;13.20;1.00
14252;DHT22;7210;51.502;10.722;2023-04-24T13:44:55;13.00;1.00
14252;DHT22;7210;51.502;10.722;2023-04-24T13:47:22;12.90;1.00
14252;DHT22;7210;51.502;10.722;2023-04-24T13:49:49;12.70;1.00
14252;DHT22;7210;51.502;10.722;2023-04-24T13:52:23;12.60;1.00
14252;DHT22;7210;51.502;10.722;2023-04-24T13:54:50;12.70;1.00
14252;DHT22;7210;51.502;10.722;2023-04-24T13:57:21;12.70;1.00
14252;DHT22;7210;51.502;10.722;2023-04-24T13:59:48;12.40;1.00
14252;DHT22;7210;51.502;10.722;2023-04-24T14:02:16;12.20;1.00
14252;DHT22;7210;51.502;10.722;2023-04-24T14:04:43;12.20;1.00
14252;DHT22;7210;51.502;10.722;2023-04-24T14:07:10;12.20;1.00
14252;DHT22;7210;51.502;10.722;2023-04-24T14:09:38;12.20;1.00
14252;DHT22;7210;51.502;10.722;2023-04-24T14:12:06;12.10;1.00
14252;DHT22;7210;51.502;10.722;2023-04-24T14:14:33;12.00;1.00
14252;DHT22;7210;51.502;10.722;2023-04-24T14:17:01;11.90;1.00
14252;DHT22;7210;51.502;10.722;2023-04-24T14:19:28;11.80;1.00
14252;DHT22;7210;51.502;10.722;2023-04-24T14:21:55;11.70;1.00
14252;DHT22;7210;51.502;10.722;2023-04-24T14:24:23;11.60;1.00
14252;DHT22;7210;51.502;10.722;2023-04-24T14:26:52;11.70;1.00
14252;DHT22;7210;51.502;10.722;2023-04-24T14:29:19;11.90;1.00
14252;DHT22;7210;51.502;10.722;2023-04-24T14:31:46;12.00;1.00
14252;DHT22;7210;51.502;10.722;2023-04-24T14:34:14;12.10;1.00
14252;DHT22;7210;51.502;10.722;2023-04-24T14:36:41;12.10;1.00
14252;DHT22;7210;51.502;10.722;2023-04-24T14:39:09;12.00;1.00
14252;DHT22;7210;51.502;10.722;2023-04-24T14:41:36;11.90;1.00
14252;DHT22;7210;51.502;10.722;2023-04-24T14:44:06;11.90;1.00
14252;DHT22;7210;51.502;10.722;2023-04-24T14:46:33;11.90;1.00
14252;DHT22;7210;51.502;10.722;2023-04-24T14:49:00;11.70;1.00
14252;DHT22;7210;51.502;10.722;2023-04-24T14:51:39;11.70;1.00
14252;DHT22;7210;51.502;10.722;2023-04-24T14:54:08;11.60;1.00
14252;DHT22;7210;51.502;10.722;2023-04-24T14:56:35;11.80;1.00
14252;DHT22;7210;51.502;10.722;2023-04-24T14:59:06;11.80;1.00
14252;DHT22;7210;51.502;10.722;2023-04-24T15:01:34;11.60;1.00
14252;DHT22;7210;51.502;10.722;2023-04-24T15:04:01;11.60;1.00
14252;DHT22;7210;51.502;10.722;2023-04-24T15:06:30;11.40;1.00
14252;DHT22;7210;51.502;10.722;2023-04-24T15:08:58;11.30;1.00
14252;DHT22;7210;51.502;10.722;2023-04-24T15:11:25;11.10;1.00
14252;DHT22;7210;51.502;10.722;2023-04-24T15:13:53;11.10;1.00
14252;DHT22;7210;51.502;10.722;2023-04-24T15:16:23;11.10;1.00
14252;DHT22;7210;51.502;10.722;2023-04-24T15:18:51;11.10;1.00
14252;DHT22;7210;51.502;10.722;2023-04-24T15:21:18;11.10;1.00
14252;DHT22;7210;51.502;10.722;2023-04-24T15:23:45;11.20;1.00
14252;DHT22;7210;51.502;10.722;2023-04-24T15:26:12;11.10;1.00
14252;DHT22;7210;51.502;10.722;2023-04-24T15:28:39;11.00;1.00
14252;DHT22;7210;51.502;10.722;2023-04-24T15:31:06;11.10;1.00
14252;DHT22;7210;51.502;10.722;2023-04-24T15:33:35;11.00;1.00
14252;DHT22;7210;51.502;10.722;2023-04-24T15:36:02;11.00;1.00
14252;DHT22;7210;51.502;10.722;2023-04-24T15:38:29;11.00;1.00
14252;DHT22;7210;51.502;10.722;2023-04-24T15:40:57;11.00;1.00
14252;DHT22;7210;51.502;10.722;2023-04-24T15:43:24;11.00;1.00
14252;DHT22;7210;51.502;10.722;2023-04-24T15:45:51;10.90;1.00
14252;DHT22;7210;51.502;10.722;2023-04-24T15:48:19;10.80;1.00
14252;DHT22;7210;51.502;10.722;2023-04-24T15:50:53;10.70;1.00
14252;DHT22;7210;51.502;10.722;2023-04-24T15:53:20;10.30;1.00
14252;DHT22;7210;51.502;10.722;2023-04-24T15:55:48;10.20;1.00
14252;DHT22;7210;51.502;10.722;2023-04-24T15:58:16;10.10;1.00
14252;DHT22;7210;51.502;10.722;2023-04-24T16:00:48;10.30;1.00
14252;DHT22;7210;51.502;10.722;2023-04-24T16:03:15;10.50;1.00